createdAt,value
2018-05-21T00:00:46.937Z,9.90
2018-05-21T00:03:15.177Z,9.87
2018-05-21T00:05:43.017Z,9.43
2018-05-21T00:08:10.856Z,9.90
2018-05-21T00:10:38.677Z,9.53
2018-05-21T00:13:06.857Z,8.93
2018-05-21T00:15:34.718Z,8.73
2018-05-21T00:18:03.046Z,8.87
2018-05-21T00:20:31.500Z,9.37
2018-05-21T00:22:59.277Z,9.67
2018-05-21T00:25:27.537Z,9.53
2018-05-21T00:27:55.737Z,9.10
2018-05-21T00:30:23.897Z,9.27
2018-05-21T00:32:52.056Z,8.97
2018-05-21T00:35:19.896Z,9.20
2018-05-21T00:37:47.816Z,9.43
2018-05-21T00:40:15.676Z,9.80
2018-05-21T00:42:43.503Z,9.87
2018-05-21T00:45:11.297Z,9.97
2018-05-21T00:47:39.136Z,9.87
2018-05-21T00:50:07.256Z,10.10
2018-05-21T00:52:35.416Z,9.53
2018-05-21T00:55:15.017Z,9.57
2018-05-21T00:57:42.936Z,10.57
2018-05-21T01:00:10.715Z,10.10
2018-05-21T01:02:39.003Z,9.57
2018-05-21T01:05:06.919Z,9.60
2018-05-21T01:07:34.799Z,9.63
2018-05-21T01:10:02.723Z,9.53
2018-05-21T01:12:30.619Z,9.00
2018-05-21T01:14:58.839Z,9.90
2018-05-21T01:17:26.738Z,9.97
2018-05-21T01:19:54.778Z,9.93
2018-05-21T01:22:24.240Z,9.37
2018-05-21T01:24:52.139Z,9.10
2018-05-21T01:27:19.997Z,9.37
2018-05-21T01:29:48.138Z,8.90
2018-05-21T01:32:16.218Z,10.50
2018-05-21T01:34:44.057Z,10.43
2018-05-21T01:37:12.102Z,9.60
2018-05-21T01:39:40.337Z,9.17
2018-05-21T01:42:08.298Z,8.50
2018-05-21T01:44:36.257Z,9.27
2018-05-21T01:47:04.156Z,9.43
2018-05-21T01:49:32.060Z,9.83
2018-05-21T01:52:00.336Z,10.03
2018-05-21T01:54:28.116Z,9.43
2018-05-21T01:56:57.156Z,9.67
2018-05-21T01:59:25.116Z,10.10
2018-05-21T02:01:52.956Z,9.80
2018-05-21T02:04:22.097Z,9.77
2018-05-21T02:06:50.016Z,9.33
2018-05-21T02:09:18.055Z,9.13
2018-05-21T02:11:45.875Z,9.53
2018-05-21T02:14:13.736Z,9.90
2018-05-21T02:16:41.615Z,10.27
2018-05-21T02:19:09.615Z,10.57
2018-05-21T02:21:37.436Z,10.37
2018-05-21T02:24:05.375Z,9.97
2018-05-21T02:26:33.679Z,9.83
2018-05-21T02:29:01.455Z,9.90
2018-05-21T02:31:29.236Z,10.07
2018-05-21T02:33:57.015Z,9.53
2018-05-21T02:36:24.955Z,10.50
2018-05-21T02:38:52.795Z,10.10
2018-05-21T02:41:20.695Z,10.70
2018-05-21T02:43:48.575Z,9.90
2018-05-21T02:46:16.455Z,9.80
2018-05-21T02:48:44.296Z,10.20
2018-05-21T02:51:12.114Z,9.63
2018-05-21T02:53:39.994Z,10.40
2018-05-21T02:56:07.836Z,10.07
2018-05-21T02:58:35.735Z,10.17
2018-05-21T03:01:03.676Z,9.20
2018-05-21T03:03:31.555Z,10.10
2018-05-21T03:05:59.335Z,10.60
2018-05-21T03:08:27.157Z,10.93
2018-05-21T03:10:55.256Z,11.17
2018-05-21T03:13:23.097Z,10.83
2018-05-21T03:15:50.856Z,11.80
2018-05-21T03:18:19.036Z,10.50
2018-05-21T03:20:46.955Z,11.13
2018-05-21T03:23:14.795Z,11.63
2018-05-21T03:25:42.676Z,11.57
2018-05-21T03:28:10.455Z,12.97
2018-05-21T03:30:38.416Z,12.83
2018-05-21T03:33:06.235Z,13.50
2018-05-21T03:35:34.297Z,13.20
2018-05-21T03:38:02.137Z,13.20
2018-05-21T03:40:30.017Z,13.07
2018-05-21T03:42:58.615Z,12.90
2018-05-21T03:45:26.496Z,13.30
2018-05-21T03:47:54.296Z,13.07
2018-05-21T03:50:22.215Z,13.93
2018-05-21T03:52:50.096Z,13.70
2018-05-21T03:55:18.024Z,13.90
2018-05-21T03:57:46.175Z,14.20
2018-05-21T04:00:25.675Z,14.53
2018-05-21T04:06:03.116Z,13.07
2018-05-21T04:08:31.015Z,13.13
2018-05-21T04:10:58.836Z,13.27
2018-05-21T04:13:26.656Z,12.63
2018-05-21T04:15:54.458Z,12.57
2018-05-21T04:18:23.016Z,12.90
2018-05-21T04:20:51.096Z,11.70
2018-05-21T04:23:18.936Z,11.97
2018-05-21T04:25:47.156Z,12.60
2018-05-21T04:28:14.956Z,11.43
2018-05-21T04:30:44.358Z,11.07
2018-05-21T04:33:12.240Z,11.00
2018-05-21T04:35:40.676Z,11.03
2018-05-21T04:38:08.636Z,10.67
2018-05-21T04:40:36.420Z,10.90
2018-05-21T04:43:04.237Z,10.57
2018-05-21T04:45:32.036Z,10.20
2018-05-21T04:47:59.876Z,9.77
2018-05-21T04:50:28.876Z,10.43
2018-05-21T04:52:56.857Z,10.07
2018-05-21T04:55:24.676Z,9.93
2018-05-21T04:57:52.855Z,9.93
2018-05-21T05:00:20.594Z,9.57
2018-05-21T05:02:48.506Z,8.87
2018-05-21T05:07:48.318Z,9.83
2018-05-21T05:10:16.657Z,9.03
2018-05-21T05:12:45.098Z,9.70
2018-05-21T05:15:13.618Z,8.97
2018-05-21T05:17:41.538Z,8.97
2018-05-21T05:20:09.822Z,9.13
2018-05-21T05:22:37.658Z,8.63
2018-05-21T05:25:05.578Z,8.27
2018-05-21T05:27:33.318Z,8.57
2018-05-21T05:30:01.138Z,7.63
2018-05-21T05:32:28.998Z,8.37
2018-05-21T05:34:57.237Z,8.33
2018-05-21T05:37:25.026Z,7.57
2018-05-21T05:39:54.676Z,8.47
2018-05-21T05:42:22.575Z,8.20
2018-05-21T05:44:50.592Z,7.97
2018-05-21T05:47:18.334Z,7.13
2018-05-21T05:49:46.174Z,7.87
2018-05-21T05:52:13.975Z,7.67
2018-05-21T05:54:41.874Z,7.67
2018-05-21T05:57:09.714Z,7.90
2018-05-21T05:59:37.613Z,6.93
2018-05-21T06:02:05.540Z,7.50
2018-05-21T06:04:34.200Z,6.37
2018-05-21T06:07:01.958Z,8.10
2018-05-21T06:09:32.059Z,6.97
2018-05-21T06:12:00.001Z,7.90
2018-05-21T06:14:27.878Z,7.20
2018-05-21T06:16:56.302Z,7.53
2018-05-21T06:19:24.178Z,7.40
2018-05-21T06:21:53.478Z,7.67
2018-05-21T06:24:22.119Z,6.87
2018-05-21T06:26:50.018Z,7.37
2018-05-21T06:29:17.918Z,7.33
2018-05-21T06:31:46.458Z,6.93
2018-05-21T06:34:14.425Z,6.37
2018-05-21T06:36:42.178Z,6.67
2018-05-21T06:39:10.039Z,5.87
2018-05-21T06:41:37.838Z,6.27
2018-05-21T06:44:05.779Z,5.63
2018-05-21T06:46:34.418Z,5.87
2018-05-21T06:49:02.599Z,6.33
2018-05-21T06:51:30.774Z,6.20
2018-05-21T06:53:58.835Z,5.70
2018-05-21T06:56:26.774Z,4.90
2018-05-21T06:58:54.634Z,5.07
2018-05-21T07:01:22.979Z,5.63
2018-05-21T07:03:50.901Z,5.10
2018-05-21T07:06:18.997Z,5.30
2018-05-21T07:08:46.835Z,4.90
2018-05-21T07:11:14.995Z,5.40
2018-05-21T07:13:43.055Z,5.20
2018-05-21T07:16:11.075Z,5.50
2018-05-21T07:18:39.260Z,5.40
2018-05-21T07:21:07.238Z,5.20
2018-05-21T07:23:35.255Z,4.90
2018-05-21T07:26:03.136Z,4.97
2018-05-21T07:28:31.054Z,5.30
2018-05-21T07:30:58.977Z,5.23
2018-05-21T07:33:26.814Z,4.73
2018-05-21T07:35:54.734Z,5.20
2018-05-21T07:38:22.954Z,5.17
2018-05-21T07:40:50.894Z,4.67
2018-05-21T07:43:18.655Z,4.93
2018-05-21T07:45:46.654Z,5.47
2018-05-21T07:48:15.054Z,4.97
2018-05-21T07:50:42.915Z,4.17
2018-05-21T07:53:10.794Z,4.60
2018-05-21T07:55:40.383Z,4.87
2018-05-21T07:58:08.395Z,4.80
2018-05-21T08:00:36.335Z,5.10
2018-05-21T08:03:04.414Z,5.30
2018-05-21T08:05:32.217Z,4.47
2018-05-21T08:08:00.158Z,4.60
2018-05-21T08:10:28.062Z,5.20
2018-05-21T08:12:56.017Z,5.03
2018-05-21T08:15:24.357Z,5.13
2018-05-21T08:17:52.298Z,5.60
2018-05-21T08:20:22.955Z,5.07
2018-05-21T08:22:50.977Z,4.97
2018-05-21T08:25:18.898Z,4.80
2018-05-21T08:27:46.822Z,5.07
2018-05-21T08:30:14.775Z,5.80
2018-05-21T08:32:42.735Z,5.70
2018-05-21T08:35:10.655Z,5.67
2018-05-21T08:37:38.412Z,5.67
2018-05-21T08:40:06.496Z,5.27
2018-05-21T08:42:34.504Z,5.53
2018-05-21T08:45:02.980Z,5.70
2018-05-21T08:47:30.902Z,5.50
2018-05-21T08:49:59.154Z,6.07
2018-05-21T08:52:27.121Z,5.10
2018-05-21T08:54:55.095Z,5.30
2018-05-21T08:57:24.255Z,5.90
2018-05-21T08:59:52.096Z,5.73
2018-05-21T09:02:20.254Z,6.00
2018-05-21T09:04:48.188Z,5.57
2018-05-21T09:07:16.500Z,5.43
2018-05-21T09:09:44.315Z,5.80
2018-05-21T09:12:12.276Z,5.93
2018-05-21T09:14:40.495Z,5.67
2018-05-21T09:17:08.581Z,6.37
2018-05-21T09:19:36.860Z,5.67
2018-05-21T09:22:04.760Z,5.63
2018-05-21T09:24:32.739Z,6.07
2018-05-21T09:27:02.572Z,6.20
2018-05-21T09:29:30.459Z,5.83
2018-05-21T09:31:58.719Z,6.10
2018-05-21T09:34:26.581Z,6.00
2018-05-21T09:36:54.500Z,5.97
2018-05-21T09:39:22.418Z,5.83
2018-05-21T09:41:50.358Z,6.50
2018-05-21T09:44:18.424Z,6.27
2018-05-21T09:46:47.056Z,5.73
2018-05-21T09:49:15.082Z,6.37
2018-05-21T09:51:43.019Z,6.57
2018-05-21T09:54:11.040Z,6.80
2018-05-21T09:56:38.898Z,5.97
2018-05-21T09:59:06.739Z,6.67
2018-05-21T10:01:35.295Z,6.30
2018-05-21T10:04:03.156Z,6.20
2018-05-21T10:06:31.294Z,6.10
2018-05-21T10:08:59.195Z,6.87
2018-05-21T10:11:27.075Z,6.30
2018-05-21T10:13:54.994Z,5.50
2018-05-21T10:16:23.075Z,6.30
2018-05-21T10:18:50.762Z,5.80
2018-05-21T10:21:18.473Z,5.83
2018-05-21T10:23:46.187Z,6.23
2018-05-21T10:26:13.889Z,6.70
2018-05-21T10:28:41.611Z,6.80
2018-05-21T10:31:09.459Z,6.27
2018-05-21T10:33:38.938Z,5.70
2018-05-21T10:36:06.883Z,5.83
2018-05-21T10:38:35.097Z,5.83
2018-05-21T10:41:03.578Z,6.00
2018-05-21T10:43:31.537Z,6.47
2018-05-21T10:45:59.478Z,5.93
2018-05-21T10:48:27.297Z,6.00
2018-05-21T10:50:56.456Z,5.83
2018-05-21T10:53:24.377Z,5.67
2018-05-21T10:55:52.537Z,5.20
2018-05-21T10:58:20.517Z,6.03
2018-05-21T11:00:48.420Z,6.50
2018-05-21T11:03:16.156Z,5.90
2018-05-21T11:05:44.096Z,6.00
2018-05-21T11:08:12.432Z,5.70
2018-05-21T11:10:40.577Z,5.67
2018-05-21T11:13:08.504Z,5.77
2018-05-21T11:15:36.223Z,5.93
2018-05-21T11:18:04.176Z,5.90
2018-05-21T11:20:32.096Z,5.10
2018-05-21T11:22:59.996Z,5.20
2018-05-21T11:25:28.357Z,4.90
2018-05-21T11:27:57.295Z,5.43
2018-05-21T11:30:25.076Z,5.93
2018-05-21T11:32:53.717Z,5.53
2018-05-21T11:35:21.796Z,5.90
2018-05-21T11:37:50.045Z,5.60
2018-05-21T11:40:18.735Z,5.53
2018-05-21T11:42:47.537Z,5.47
2018-05-21T11:45:15.539Z,5.70
2018-05-21T11:47:43.519Z,5.70
2018-05-21T11:50:11.501Z,4.90
2018-05-21T11:52:41.076Z,5.27
2018-05-21T11:55:09.036Z,4.90
2018-05-21T11:57:36.855Z,5.37
2018-05-21T12:00:04.755Z,5.80
2018-05-21T12:02:32.716Z,5.23
2018-05-21T12:07:32.507Z,4.97
2018-05-21T12:10:00.900Z,5.40
2018-05-21T12:12:28.758Z,5.07
2018-05-21T12:14:56.579Z,5.20
2018-05-21T12:17:24.530Z,4.60
2018-05-21T12:19:54.182Z,4.90
2018-05-21T12:22:22.300Z,5.00
2018-05-21T12:24:50.779Z,4.70
2018-05-21T12:27:18.599Z,4.73
2018-05-21T12:29:46.540Z,4.60
2018-05-21T12:32:14.799Z,4.80
2018-05-21T12:34:42.737Z,4.87
2018-05-21T12:37:10.579Z,5.40
2018-05-21T12:39:38.499Z,5.07
2018-05-21T12:42:06.819Z,4.50
2018-05-21T12:44:34.918Z,4.80
2018-05-21T12:47:02.839Z,4.83
2018-05-21T12:49:30.781Z,4.50
2018-05-21T12:51:58.819Z,4.90
2018-05-21T12:54:26.798Z,4.80
2018-05-21T12:56:54.722Z,5.03
2018-05-21T12:59:23.058Z,4.50
2018-05-21T13:01:51.139Z,4.53
2018-05-21T13:04:19.239Z,4.80
2018-05-21T13:06:47.042Z,4.97
2018-05-21T13:09:14.999Z,4.70
2018-05-21T13:11:42.999Z,4.70
2018-05-21T13:14:10.879Z,4.57
2018-05-21T13:16:38.779Z,5.00
2018-05-21T13:19:06.658Z,5.03
2018-05-21T13:21:34.719Z,4.63
2018-05-21T13:24:02.865Z,4.80
2018-05-21T13:26:30.740Z,5.00
2018-05-21T13:28:58.659Z,5.17
2018-05-21T13:31:26.375Z,4.90
2018-05-21T13:33:54.334Z,4.97
2018-05-21T13:36:22.596Z,4.90
2018-05-21T13:38:50.435Z,4.90
2018-05-21T13:41:18.634Z,4.60
2018-05-21T13:43:46.514Z,4.87
2018-05-21T13:46:14.558Z,4.87
2018-05-21T13:48:42.519Z,5.03
2018-05-21T13:51:10.403Z,5.13
2018-05-21T13:53:38.463Z,5.00
2018-05-21T13:56:06.354Z,4.83
2018-05-21T13:58:34.339Z,5.50
2018-05-21T14:01:02.419Z,5.03
2018-05-21T14:03:30.244Z,5.40
2018-05-21T14:05:58.219Z,5.17
2018-05-21T14:08:26.199Z,5.20
2018-05-21T14:10:54.099Z,4.70
2018-05-21T14:13:22.000Z,5.23
2018-05-21T14:15:49.880Z,4.97
2018-05-21T14:18:17.819Z,5.37
2018-05-21T14:20:46.446Z,6.10
2018-05-21T14:23:14.460Z,4.97
2018-05-21T14:25:42.838Z,5.30
2018-05-21T14:28:10.765Z,5.43
2018-05-21T14:30:38.844Z,5.80
2018-05-21T14:33:06.930Z,5.40
2018-05-21T14:35:35.787Z,5.30
2018-05-21T14:38:04.697Z,5.57
2018-05-21T14:40:32.658Z,5.40
2018-05-21T14:43:00.598Z,5.63
2018-05-21T14:45:29.621Z,4.77
2018-05-21T14:47:57.661Z,5.63
2018-05-21T14:50:25.561Z,4.67
2018-05-21T14:52:54.241Z,4.80
2018-05-21T14:55:23.035Z,5.30
2018-05-21T14:57:50.935Z,4.87
2018-05-21T15:00:18.660Z,5.20
2018-05-21T15:02:46.919Z,5.20
2018-05-21T15:05:14.699Z,5.27
2018-05-21T15:07:42.580Z,5.70
2018-05-21T15:10:10.480Z,4.87
2018-05-21T15:12:38.322Z,5.30
2018-05-21T15:15:06.120Z,5.67
2018-05-21T15:17:34.000Z,5.80
2018-05-21T15:20:01.822Z,5.83
2018-05-21T15:22:29.840Z,5.50
2018-05-21T15:24:57.781Z,5.73
2018-05-21T15:27:25.516Z,6.63
2018-05-21T15:29:53.476Z,6.23
2018-05-21T15:32:21.476Z,6.43
2018-05-21T15:34:49.796Z,6.70
2018-05-21T15:37:17.696Z,6.60
2018-05-21T15:39:45.556Z,6.30
2018-05-21T15:42:13.423Z,6.20
2018-05-21T15:44:41.503Z,6.50
2018-05-21T15:47:09.460Z,6.53
2018-05-21T15:49:37.295Z,6.40
2018-05-21T15:52:05.320Z,6.67
2018-05-21T15:54:34.147Z,6.27
2018-05-21T15:57:02.101Z,5.80
2018-05-21T15:59:30.126Z,6.60
2018-05-21T16:02:00.058Z,6.43
2018-05-21T16:04:28.200Z,6.20
2018-05-21T16:06:56.536Z,6.20
2018-05-21T16:09:24.537Z,6.30
2018-05-21T16:11:52.456Z,6.67
2018-05-21T16:14:20.396Z,6.33
2018-05-21T16:16:48.535Z,6.90
2018-05-21T16:19:17.658Z,6.67
2018-05-21T16:21:45.616Z,7.00
2018-05-21T16:24:13.456Z,7.13
2018-05-21T16:26:41.395Z,7.37
2018-05-21T16:29:09.695Z,7.77
2018-05-21T16:31:37.596Z,7.27
2018-05-21T16:34:05.658Z,6.30
2018-05-21T16:36:33.757Z,7.27
2018-05-21T16:39:01.676Z,6.53
2018-05-21T16:41:29.705Z,6.60
2018-05-21T16:43:57.616Z,6.47
2018-05-21T16:46:25.896Z,5.73
2018-05-21T16:48:53.898Z,6.50
2018-05-21T16:51:21.917Z,6.43
2018-05-21T16:53:52.631Z,6.00
2018-05-21T16:56:20.678Z,6.30
2018-05-21T16:58:49.378Z,6.37
2018-05-21T17:01:18.157Z,6.03
2018-05-21T17:03:46.116Z,6.20
2018-05-21T17:06:14.057Z,6.07
2018-05-21T17:08:42.016Z,6.87
2018-05-21T17:11:10.317Z,6.20
2018-05-21T17:13:38.776Z,6.10
2018-05-21T17:16:06.596Z,6.33
2018-05-21T17:18:34.676Z,5.87
2018-05-21T17:21:02.577Z,5.27
2018-05-21T17:23:30.516Z,5.50
2018-05-21T17:25:58.361Z,6.00
2018-05-21T17:28:26.218Z,5.40
2018-05-21T17:30:54.018Z,4.93
2018-05-21T17:33:22.006Z,5.60
2018-05-21T17:35:50.210Z,5.60
2018-05-21T17:38:19.578Z,4.93
2018-05-21T17:40:47.451Z,5.20
2018-05-21T17:43:15.659Z,5.40
2018-05-21T17:45:43.701Z,5.10
2018-05-21T17:48:11.738Z,5.50
2018-05-21T17:50:39.721Z,5.40
2018-05-21T17:53:07.918Z,5.47
2018-05-21T17:55:35.901Z,5.27
2018-05-21T17:58:03.784Z,6.40
2018-05-21T18:00:31.702Z,5.87
2018-05-21T18:02:59.637Z,5.80
2018-05-21T18:05:28.103Z,5.50
2018-05-21T18:07:56.633Z,6.00
2018-05-21T18:10:24.459Z,5.80
2018-05-21T18:12:52.440Z,6.23
2018-05-21T18:15:20.502Z,6.07
2018-05-21T18:17:48.700Z,5.50
2018-05-21T18:20:17.119Z,6.00
2018-05-21T18:22:45.081Z,6.43
2018-05-21T18:25:12.939Z,6.03
2018-05-21T18:27:41.079Z,6.00
2018-05-21T18:30:09.083Z,6.93
2018-05-21T18:32:37.513Z,6.43
2018-05-21T18:35:05.243Z,6.47
2018-05-21T18:37:33.337Z,6.70
2018-05-21T18:40:01.278Z,6.63
2018-05-21T18:42:29.412Z,6.00
2018-05-21T18:44:57.323Z,6.70
2018-05-21T18:47:25.730Z,6.30
2018-05-21T18:49:53.597Z,6.03
2018-05-21T18:52:21.577Z,5.90
2018-05-21T18:54:49.479Z,5.90
2018-05-21T18:57:17.659Z,6.87
2018-05-21T18:59:47.115Z,6.13
2018-05-21T19:02:14.981Z,6.80
2018-05-21T19:04:43.659Z,6.23
2018-05-21T19:07:11.443Z,6.33
2018-05-21T19:09:39.238Z,5.90
2018-05-21T19:12:07.118Z,6.10
2018-05-21T19:14:34.961Z,6.17
2018-05-21T19:17:02.857Z,6.70
2018-05-21T19:19:30.740Z,6.70
2018-05-21T19:21:58.515Z,6.00
2018-05-21T19:24:27.097Z,6.67
2018-05-21T19:26:55.124Z,7.43
2018-05-21T19:29:23.943Z,6.83
2018-05-21T19:31:51.702Z,7.57
2018-05-21T19:34:21.361Z,6.90
2018-05-21T19:36:50.061Z,7.20
2018-05-21T19:39:18.040Z,6.73
2018-05-21T19:41:45.862Z,7.03
2018-05-21T19:44:13.720Z,5.87
2018-05-21T19:46:42.332Z,6.40
2018-05-21T19:49:10.288Z,6.70
2018-05-21T19:51:38.226Z,6.00
2018-05-21T19:54:06.057Z,6.33
2018-05-21T19:56:33.972Z,6.07
2018-05-21T19:59:01.717Z,6.10
2018-05-21T20:01:29.601Z,5.83
2018-05-21T20:03:57.436Z,7.00
2018-05-21T20:06:25.296Z,6.63
2018-05-21T20:08:53.136Z,6.27
2018-05-21T20:11:21.037Z,6.20
2018-05-21T20:13:49.660Z,6.30
2018-05-21T20:16:17.615Z,5.90
2018-05-21T20:18:45.415Z,6.63
2018-05-21T20:21:13.319Z,6.40
2018-05-21T20:23:41.181Z,6.70
2018-05-21T20:26:08.919Z,6.13
2018-05-21T20:28:36.775Z,6.13
2018-05-21T20:31:05.280Z,6.67
2018-05-21T20:33:33.045Z,6.93
2018-05-21T20:36:00.856Z,6.73
2018-05-21T20:38:28.568Z,7.50
2018-05-21T20:40:56.379Z,6.90
2018-05-21T20:43:24.317Z,6.00
2018-05-21T20:45:52.101Z,6.67
2018-05-21T20:48:19.797Z,6.83
2018-05-21T20:50:49.316Z,6.63
2018-05-21T20:53:17.034Z,6.40
2018-05-21T20:55:44.723Z,7.37
2018-05-21T20:58:12.435Z,8.17
2018-05-21T21:00:40.116Z,7.93
2018-05-21T21:03:07.759Z,7.23
2018-05-21T21:05:36.254Z,6.57
2018-05-21T21:08:03.944Z,7.07
2018-05-21T21:10:31.602Z,7.20
2018-05-21T21:12:59.303Z,6.77
2018-05-21T21:15:26.970Z,7.40
2018-05-21T21:17:54.681Z,6.93
2018-05-21T21:20:22.408Z,6.67
2018-05-21T21:22:50.066Z,6.70
2018-05-21T21:25:17.764Z,6.47
2018-05-21T21:27:46.223Z,6.93
2018-05-21T21:30:13.956Z,7.20
2018-05-21T21:32:41.728Z,7.00
2018-05-21T21:35:09.386Z,7.27
2018-05-21T21:37:37.159Z,7.20
2018-05-21T21:40:04.852Z,7.13
2018-05-21T21:42:32.602Z,7.57
2018-05-21T21:45:00.360Z,6.50
2018-05-21T21:47:28.085Z,6.53
2018-05-21T21:49:55.841Z,6.43
2018-05-21T21:52:23.598Z,6.70
2018-05-21T21:54:51.345Z,6.70
2018-05-21T21:57:19.878Z,6.90
2018-05-21T21:59:47.657Z,7.00
2018-05-21T22:02:15.478Z,6.70
2018-05-21T22:04:43.218Z,6.13
2018-05-21T22:07:10.957Z,6.60
2018-05-21T22:09:38.689Z,5.57
2018-05-21T22:12:06.453Z,6.23
2018-05-21T22:14:34.173Z,6.37
2018-05-21T22:17:01.895Z,6.33
2018-05-21T22:19:29.743Z,6.10
2018-05-21T22:21:57.892Z,6.30
2018-05-21T22:24:25.698Z,6.87
2018-05-21T22:26:53.417Z,6.07
2018-05-21T22:29:21.157Z,5.80
2018-05-21T22:31:48.871Z,6.67
2018-05-21T22:34:16.613Z,6.80
2018-05-21T22:36:44.377Z,6.87
2018-05-21T22:39:12.133Z,6.63
2018-05-21T22:41:39.975Z,6.30
2018-05-21T22:44:08.515Z,7.10
2018-05-21T22:46:36.242Z,7.10
2018-05-21T22:49:03.926Z,6.67
2018-05-21T22:51:32.210Z,6.60
2018-05-21T22:53:59.948Z,6.50
2018-05-21T22:58:59.483Z,6.07
2018-05-21T23:01:27.221Z,6.57
2018-05-21T23:06:26.882Z,6.37
2018-05-21T23:08:54.638Z,6.37
2018-05-21T23:11:22.479Z,6.60
2018-05-21T23:13:50.237Z,6.13
2018-05-21T23:16:17.973Z,6.83
2018-05-21T23:18:45.767Z,6.50
2018-05-21T23:21:13.838Z,6.47
2018-05-21T23:23:41.549Z,6.47
2018-05-21T23:26:09.273Z,6.50
2018-05-21T23:28:37.217Z,6.10
2018-05-21T23:31:05.280Z,6.30
2018-05-21T23:33:33.135Z,5.90
2018-05-21T23:36:01.335Z,6.10
2018-05-21T23:38:29.295Z,5.93
2018-05-21T23:40:58.137Z,6.90
2018-05-21T23:43:26.195Z,6.00
2018-05-21T23:45:54.135Z,5.87
2018-05-21T23:48:21.975Z,6.10
2018-05-21T23:50:49.881Z,6.57
2018-05-21T23:53:18.575Z,6.70
2018-05-21T23:55:46.455Z,6.23
2018-05-21T23:58:15.795Z,5.93
